createdAt,value
2022-08-21T00:07:33.949Z,5.90
2022-08-21T00:15:10.424Z,7.22
2022-08-21T00:22:47.988Z,6.50
2022-08-21T00:30:23.999Z,6.05
2022-08-21T00:37:59.993Z,7.47
2022-08-21T00:45:34.701Z,6.80
2022-08-21T00:53:11.922Z,9.10
2022-08-21T01:00:49.896Z,6.38
2022-08-21T01:08:25.840Z,8.48
2022-08-21T01:16:04.037Z,6.57
2022-08-21T01:23:41.740Z,6.45
2022-08-21T01:31:17.181Z,6.95
2022-08-21T01:38:59.500Z,6.68
2022-08-21T01:46:33.742Z,6.22
2022-08-21T01:54:09.287Z,6.47
2022-08-21T02:01:43.457Z,6.32
2022-08-21T02:09:18.685Z,6.27
2022-08-21T02:16:52.792Z,6.25
2022-08-21T02:24:54.850Z,7.78
2022-08-21T02:32:29.224Z,10.13
2022-08-21T02:40:05.747Z,5.30
2022-08-21T02:47:39.672Z,5.40
2022-08-21T02:55:14.789Z,4.60
2022-08-21T03:02:49.292Z,4.20
2022-08-21T03:10:24.611Z,4.10
2022-08-21T03:17:58.434Z,5.93
2022-08-21T03:25:40.454Z,5.50
2022-08-21T03:33:15.778Z,6.57
2022-08-21T03:40:51.179Z,6.38
2022-08-21T03:48:25.565Z,4.60
2022-08-21T03:56:00.869Z,5.50
2022-08-21T04:03:36.992Z,4.47
2022-08-21T04:11:12.458Z,5.90
2022-08-21T04:18:46.307Z,4.13
2022-08-21T04:26:21.661Z,5.63
2022-08-21T04:33:55.492Z,6.28
2022-08-21T04:41:30.600Z,4.13
2022-08-21T04:49:04.469Z,3.92
2022-08-21T04:56:46.649Z,5.88
2022-08-21T05:04:25.295Z,4.78
2022-08-21T05:12:00.503Z,6.13
2022-08-21T05:19:34.254Z,3.67
2022-08-21T05:27:09.386Z,3.53
2022-08-21T05:34:43.243Z,6.65
2022-08-21T05:42:18.460Z,3.22
2022-08-21T05:49:52.264Z,4.15
2022-08-21T05:57:27.486Z,5.07
2022-08-21T06:05:01.346Z,4.18
2022-08-21T06:12:36.541Z,5.15
2022-08-21T06:20:14.026Z,3.08
2022-08-21T06:27:49.165Z,3.33
2022-08-21T06:35:23.074Z,8.55
2022-08-21T06:43:00.662Z,4.00
2022-08-21T06:50:36.111Z,5.88
2022-08-21T06:58:11.960Z,3.50
2022-08-21T07:05:45.802Z,7.10
2022-08-21T07:13:21.073Z,6.47
2022-08-21T07:20:55.037Z,4.07
2022-08-21T07:28:30.505Z,6.47
2022-08-21T07:36:05.133Z,4.25
2022-08-21T07:43:46.179Z,6.72
2022-08-21T07:51:23.107Z,3.95
2022-08-21T07:58:58.848Z,5.05
2022-08-21T08:06:33.027Z,8.90
2022-08-21T08:14:08.193Z,2.37
2022-08-21T08:21:42.125Z,4.45
2022-08-21T08:29:17.319Z,1.85
2022-08-21T08:36:51.520Z,4.68
2022-08-21T08:44:26.998Z,5.10
2022-08-21T08:52:08.949Z,7.70
2022-08-21T08:59:47.970Z,7.03
2022-08-21T09:07:32.912Z,5.53
2022-08-21T09:15:18.515Z,3.97
2022-08-21T09:23:09.523Z,6.22
2022-08-21T09:30:45.798Z,5.13
2022-08-21T09:38:29.402Z,8.07
2022-08-21T09:46:11.091Z,7.00
2022-08-21T09:53:48.717Z,2.92
2022-08-21T10:01:26.587Z,3.55
2022-08-21T10:09:07.903Z,3.95
2022-08-21T10:16:54.744Z,5.25
2022-08-21T10:24:35.930Z,5.22
2022-08-21T10:32:26.339Z,3.47
2022-08-21T10:40:14.670Z,2.30
2022-08-21T10:47:57.854Z,5.53
2022-08-21T10:55:35.713Z,3.10
2022-08-21T11:03:15.737Z,3.30
2022-08-21T11:10:59.398Z,4.63
2022-08-21T11:18:40.792Z,4.13
2022-08-21T11:26:20.546Z,4.28
2022-08-21T11:34:08.354Z,3.15
2022-08-21T11:41:49.552Z,2.28
2022-08-21T11:49:38.100Z,5.90
2022-08-21T12:05:13.310Z,3.83
2022-08-21T12:12:47.408Z,9.63
2022-08-21T12:20:39.881Z,4.03
2022-08-21T12:28:25.563Z,6.10
2022-08-21T12:36:09.592Z,4.10
2022-08-21T12:43:47.737Z,5.03
2022-08-21T12:51:26.663Z,5.60
2022-08-21T12:59:04.844Z,3.88
2022-08-21T13:06:43.589Z,5.05
2022-08-21T13:14:25.542Z,6.03
2022-08-21T13:22:02.705Z,3.63
2022-08-21T13:30:06.974Z,6.63
2022-08-21T13:37:44.307Z,5.20
2022-08-21T13:45:26.116Z,5.40
2022-08-21T13:53:05.968Z,5.80
2022-08-21T14:00:48.469Z,3.95
2022-08-21T14:08:32.106Z,3.45
2022-08-21T14:16:14.370Z,4.25
2022-08-21T14:23:49.538Z,4.70
2022-08-21T14:31:30.401Z,5.47
2022-08-21T14:39:06.055Z,4.00
2022-08-21T14:46:54.143Z,4.07
2022-08-21T14:54:33.305Z,6.15
2022-08-21T15:02:08.310Z,2.70
2022-08-21T15:09:43.458Z,3.50
2022-08-21T15:17:17.655Z,4.32
2022-08-21T15:24:52.692Z,7.63
2022-08-21T15:32:30.300Z,4.97
2022-08-21T15:40:07.599Z,9.00
2022-08-21T15:47:46.468Z,3.97
2022-08-21T15:55:21.795Z,3.42
2022-08-21T16:02:59.224Z,3.30
2022-08-21T16:10:36.641Z,5.00
2022-08-21T16:18:11.274Z,8.32
2022-08-21T16:25:47.184Z,3.28
2022-08-21T16:33:24.979Z,6.47
2022-08-21T16:41:01.055Z,3.97
2022-08-21T16:48:34.951Z,3.63
2022-08-21T16:56:14.578Z,3.40
2022-08-21T17:03:51.464Z,5.00
2022-08-21T17:11:38.078Z,3.38
2022-08-21T17:19:14.040Z,2.90
2022-08-21T17:26:50.235Z,3.45
2022-08-21T17:34:24.759Z,3.70
2022-08-21T17:42:10.430Z,4.78
2022-08-21T17:49:44.264Z,2.28
2022-08-21T17:57:23.728Z,3.05
2022-08-21T18:04:58.008Z,3.28
2022-08-21T18:12:33.764Z,4.50
2022-08-21T18:20:09.251Z,4.00
2022-08-21T18:27:46.400Z,3.45
2022-08-21T18:35:20.659Z,3.75
2022-08-21T18:42:56.104Z,4.93
2022-08-21T18:50:30.438Z,5.38
2022-08-21T18:58:05.804Z,3.27
2022-08-21T19:05:43.328Z,40.28
2022-08-21T19:13:22.969Z,35.13
2022-08-21T19:20:57.675Z,32.15
2022-08-21T19:28:38.811Z,32.42
2022-08-21T19:36:12.939Z,22.17
2022-08-21T19:43:51.670Z,20.63
2022-08-21T19:51:25.791Z,21.27
2022-08-21T19:59:03.034Z,19.00
2022-08-21T20:06:40.353Z,11.23
2022-08-21T20:14:19.181Z,10.63
2022-08-21T20:21:52.977Z,13.52
2022-08-21T20:29:31.458Z,8.35
2022-08-21T20:37:11.065Z,9.02
2022-08-21T20:44:47.506Z,11.60
2022-08-21T20:52:23.667Z,8.90
2022-08-21T21:00:02.645Z,8.57
2022-08-21T21:07:39.662Z,11.63
2022-08-21T21:15:26.022Z,7.15
2022-08-21T21:23:12.168Z,7.35
2022-08-21T21:30:51.947Z,5.47
2022-08-21T21:46:25.610Z,5.35
2022-08-21T21:54:11.406Z,6.40
2022-08-21T22:01:50.342Z,6.05
2022-08-21T22:09:42.297Z,6.78
2022-08-21T22:17:33.903Z,5.22
2022-08-21T22:25:17.324Z,7.20
2022-08-21T22:32:52.597Z,5.90
2022-08-21T22:40:28.971Z,6.13
2022-08-21T22:56:07.553Z,7.28
2022-08-21T23:03:47.585Z,4.80
2022-08-21T23:11:25.195Z,6.95
2022-08-21T23:19:10.595Z,5.53
2022-08-21T23:26:57.263Z,8.30
2022-08-21T23:34:43.782Z,6.78
2022-08-21T23:42:32.719Z,5.38
2022-08-21T23:58:18.571Z,7.13
